createdAt,value
2023-04-29T00:02:52.835Z,10.40
2023-04-29T00:07:54.967Z,10.40
2023-04-29T00:12:58.430Z,10.48
2023-04-29T00:18:00.423Z,10.47
2023-04-29T00:23:02.568Z,10.41
2023-04-29T00:28:06.056Z,10.48
2023-04-29T00:33:08.165Z,10.48
2023-04-29T00:38:10.710Z,10.47
2023-04-29T00:43:13.982Z,10.51
2023-04-29T00:48:15.979Z,10.46
2023-04-29T00:53:17.977Z,10.48
2023-04-29T00:58:22.245Z,10.48
2023-04-29T01:03:24.570Z,10.51
2023-04-29T01:08:37.893Z,10.55
2023-04-29T01:13:45.588Z,10.56
2023-04-29T01:18:54.044Z,10.54
2023-04-29T01:23:57.549Z,10.56
2023-04-29T01:29:08.265Z,10.56
2023-04-29T01:34:14.486Z,10.55
2023-04-29T01:39:26.511Z,10.51
2023-04-29T01:44:30.041Z,10.47
2023-04-29T01:49:35.710Z,10.51
2023-04-29T01:54:39.321Z,10.55
2023-04-29T01:59:42.263Z,10.50
2023-04-29T02:04:44.239Z,10.53
2023-04-29T02:09:47.495Z,10.52
2023-04-29T02:14:53.053Z,10.55
2023-04-29T02:19:55.177Z,10.52
2023-04-29T02:24:58.467Z,10.54
2023-04-29T02:30:00.439Z,10.51
2023-04-29T02:35:02.419Z,10.50
2023-04-29T02:40:07.241Z,10.49
2023-04-29T02:45:10.482Z,10.49
2023-04-29T02:50:12.463Z,10.44
2023-04-29T02:55:15.926Z,10.44
2023-04-29T03:00:17.944Z,10.39
2023-04-29T03:05:19.904Z,10.38
2023-04-29T03:10:23.320Z,10.35
2023-04-29T03:15:25.412Z,10.37
2023-04-29T03:20:27.354Z,10.40
2023-04-29T03:25:31.203Z,10.39
2023-04-29T03:30:33.153Z,10.45
2023-04-29T03:35:35.135Z,10.52
2023-04-29T03:40:38.471Z,10.51
2023-04-29T03:45:40.448Z,10.55
2023-04-29T03:50:42.497Z,10.57
2023-04-29T03:55:46.340Z,10.54
2023-04-29T04:00:48.420Z,10.61
2023-04-29T04:05:50.577Z,10.58
2023-04-29T04:10:54.128Z,10.56
2023-04-29T04:15:56.139Z,10.55
2023-04-29T04:20:58.072Z,10.63
2023-04-29T04:26:01.670Z,10.69
2023-04-29T04:31:03.876Z,10.70
2023-04-29T04:36:06.601Z,10.74
2023-04-29T04:41:09.900Z,10.79
2023-04-29T04:46:12.392Z,10.83
2023-04-29T04:51:14.473Z,10.81
2023-04-29T04:56:17.766Z,10.91
2023-04-29T05:01:19.815Z,10.94
2023-04-29T05:06:21.851Z,11.07
2023-04-29T05:11:25.264Z,11.04
2023-04-29T05:16:27.256Z,11.12
2023-04-29T05:21:29.346Z,11.15
2023-04-29T05:26:32.620Z,11.09
2023-04-29T05:31:34.611Z,11.13
2023-04-29T05:36:36.652Z,11.09
2023-04-29T05:41:40.248Z,11.04
2023-04-29T05:46:42.362Z,11.19
2023-04-29T05:51:44.354Z,11.21
2023-04-29T05:56:47.769Z,11.26
2023-04-29T06:01:49.806Z,11.24
2023-04-29T06:06:52.119Z,11.20
2023-04-29T06:11:56.115Z,11.29
2023-04-29T06:16:58.198Z,11.25
2023-04-29T06:22:00.184Z,11.33
2023-04-29T06:27:04.550Z,11.17
2023-04-29T06:32:06.610Z,11.27
2023-04-29T06:37:08.815Z,11.36
2023-04-29T06:42:12.181Z,11.48
2023-04-29T06:47:15.285Z,11.57
2023-04-29T06:52:17.365Z,11.64
2023-04-29T06:57:20.904Z,11.79
2023-04-29T07:02:22.953Z,11.94
2023-04-29T07:07:25.017Z,12.04
2023-04-29T07:12:28.310Z,12.08
2023-04-29T07:17:31.439Z,12.04
2023-04-29T07:22:33.623Z,12.17
2023-04-29T07:27:37.257Z,12.23
2023-04-29T07:32:39.305Z,12.42
2023-04-29T07:37:43.828Z,12.52
2023-04-29T07:42:47.381Z,12.62
2023-04-29T07:47:49.374Z,12.64
2023-04-29T07:52:51.501Z,12.59
2023-04-29T07:57:54.860Z,12.70
2023-04-29T08:02:58.134Z,12.98
2023-04-29T08:08:00.584Z,13.17
2023-04-29T08:13:03.998Z,13.31
2023-04-29T08:18:06.059Z,13.35
2023-04-29T08:23:08.060Z,13.03
2023-04-29T08:28:11.645Z,13.60
2023-04-29T08:33:14.417Z,13.87
2023-04-29T08:38:16.845Z,14.31
2023-04-29T08:43:21.523Z,14.71
2023-04-29T08:48:24.067Z,14.94
2023-04-29T08:53:26.284Z,15.15
2023-04-29T08:58:31.767Z,16.40
2023-04-29T09:03:40.810Z,16.59
2023-04-29T09:08:43.236Z,16.60
2023-04-29T09:13:46.613Z,16.04
2023-04-29T09:18:50.390Z,16.48
2023-04-29T09:23:53.800Z,16.63
2023-04-29T09:29:11.839Z,16.82
2023-04-29T09:34:14.471Z,18.27
2023-04-29T09:39:18.282Z,19.06
2023-04-29T09:44:23.351Z,17.61
2023-04-29T09:49:26.969Z,16.12
2023-04-29T09:54:30.529Z,15.38
2023-04-29T09:59:38.291Z,15.74
2023-04-29T10:04:42.607Z,16.22
2023-04-29T10:09:46.171Z,16.35
2023-04-29T10:14:55.724Z,15.30
2023-04-29T10:20:05.720Z,14.83
2023-04-29T10:25:10.332Z,14.73
2023-04-29T10:30:15.190Z,14.42
2023-04-29T10:35:20.029Z,14.10
2023-04-29T10:40:27.902Z,13.67
2023-04-29T10:45:34.858Z,13.77
2023-04-29T10:50:42.545Z,13.58
2023-04-29T10:55:47.842Z,13.82
2023-04-29T11:00:51.418Z,13.40
2023-04-29T11:06:08.675Z,12.79
2023-04-29T11:11:13.141Z,11.53
2023-04-29T11:16:28.260Z,10.91
2023-04-29T11:21:31.126Z,10.72
2023-04-29T11:26:34.865Z,10.76
2023-04-29T11:31:39.564Z,10.65
2023-04-29T11:36:41.678Z,10.95
2023-04-29T11:41:43.687Z,11.36
2023-04-29T11:46:47.010Z,11.74
2023-04-29T11:51:48.991Z,12.24
2023-04-29T11:56:53.702Z,12.47
2023-04-29T12:01:59.340Z,12.60
2023-04-29T12:07:03.719Z,12.85
2023-04-29T12:12:07.907Z,13.29
2023-04-29T12:17:12.456Z,14.13
2023-04-29T12:22:14.434Z,14.28
2023-04-29T12:27:16.532Z,14.38
2023-04-29T12:32:22.982Z,14.76
2023-04-29T12:37:27.986Z,14.45
2023-04-29T12:42:32.543Z,14.54
2023-04-29T12:47:36.958Z,14.11
2023-04-29T12:52:39.177Z,14.02
2023-04-29T12:57:41.148Z,14.12
2023-04-29T13:02:44.657Z,14.42
2023-04-29T13:07:46.721Z,14.87
2023-04-29T13:12:49.407Z,14.81
2023-04-29T13:17:52.806Z,15.48
2023-04-29T13:22:54.761Z,16.29
2023-04-29T13:27:56.738Z,15.67
2023-04-29T13:33:08.449Z,15.54
2023-04-29T13:38:13.711Z,15.54
2023-04-29T13:43:23.321Z,15.42
2023-04-29T13:49:14.241Z,15.18
2023-04-29T13:54:48.125Z,15.57
2023-04-29T14:04:26.879Z,15.39
2023-04-29T14:09:28.910Z,15.81
2023-04-29T14:14:31.164Z,15.31
2023-04-29T14:19:34.493Z,15.87
2023-04-29T14:24:36.505Z,15.43
2023-04-29T14:29:38.558Z,15.84
2023-04-29T14:34:42.573Z,16.24
2023-04-29T14:39:44.550Z,16.09
2023-04-29T14:44:46.724Z,15.13
2023-04-29T14:49:50.032Z,15.53
2023-04-29T14:54:52.276Z,15.37
2023-04-29T14:59:54.321Z,15.36
2023-04-29T15:04:57.777Z,15.39
2023-04-29T15:09:59.868Z,15.51
2023-04-29T15:15:01.835Z,15.53
2023-04-29T15:20:07.500Z,15.87
2023-04-29T15:25:10.237Z,15.76
2023-04-29T15:30:13.379Z,15.23
2023-04-29T15:35:17.172Z,14.80
2023-04-29T15:40:20.029Z,14.39
2023-04-29T15:45:22.005Z,14.17
2023-04-29T15:50:25.830Z,14.34
2023-04-29T15:55:27.903Z,14.05
2023-04-29T16:00:30.139Z,14.02
2023-04-29T16:05:34.441Z,14.07
2023-04-29T16:10:36.436Z,14.00
2023-04-29T16:15:39.063Z,13.72
2023-04-29T16:20:42.751Z,13.66
2023-04-29T16:25:44.817Z,13.45
2023-04-29T16:30:46.795Z,13.18
2023-04-29T16:35:50.166Z,12.76
2023-04-29T16:40:52.187Z,12.54
2023-04-29T16:45:54.230Z,12.33
2023-04-29T16:50:57.760Z,12.31
2023-04-29T16:56:00.010Z,12.48
2023-04-29T17:01:02.086Z,13.12
2023-04-29T17:06:06.432Z,12.73
2023-04-29T17:11:08.537Z,12.66
2023-04-29T17:16:20.318Z,12.35
2023-04-29T17:21:25.716Z,12.27
2023-04-29T17:26:27.795Z,11.82
2023-04-29T17:31:44.759Z,11.74
2023-04-29T17:36:48.324Z,11.69
2023-04-29T17:41:50.547Z,11.48
2023-04-29T17:46:52.565Z,11.28
2023-04-29T17:51:56.017Z,11.13
2023-04-29T17:56:58.901Z,11.06
2023-04-29T18:02:01.122Z,10.97
2023-04-29T18:07:04.426Z,11.07
2023-04-29T18:12:06.693Z,11.04
2023-04-29T18:17:08.762Z,10.91
2023-04-29T18:22:12.063Z,11.01
2023-04-29T18:27:14.148Z,11.08
2023-04-29T18:32:16.393Z,11.12
2023-04-29T18:37:19.793Z,11.15
2023-04-29T18:42:22.004Z,11.32
2023-04-29T18:47:24.024Z,11.22
2023-04-29T18:52:27.410Z,11.36
2023-04-29T18:57:29.365Z,11.46
2023-04-29T19:02:31.597Z,11.65
2023-04-29T19:07:35.273Z,11.70
2023-04-29T19:12:37.344Z,11.64
2023-04-29T19:17:39.692Z,11.58
2023-04-29T19:22:43.042Z,11.65
2023-04-29T19:27:45.204Z,11.56
2023-04-29T19:32:47.513Z,11.39
2023-04-29T19:37:50.922Z,11.56
2023-04-29T19:42:52.948Z,11.76
2023-04-29T19:47:54.947Z,11.78
2023-04-29T19:52:58.802Z,11.90
2023-04-29T19:58:00.981Z,11.93
2023-04-29T20:03:03.462Z,11.88
2023-04-29T20:08:07.194Z,11.87
2023-04-29T20:13:09.207Z,11.84
2023-04-29T20:18:11.272Z,11.79
2023-04-29T20:23:14.589Z,11.33
2023-04-29T20:28:16.567Z,10.99
2023-04-29T20:33:18.697Z,10.51
2023-04-29T20:38:22.797Z,10.18
2023-04-29T20:43:26.533Z,10.16
2023-04-29T20:48:28.544Z,10.28
2023-04-29T20:53:31.951Z,10.33
2023-04-29T20:58:33.972Z,10.33
2023-04-29T21:03:35.990Z,10.42
2023-04-29T21:08:39.292Z,10.33
2023-04-29T21:13:41.260Z,10.32
2023-04-29T21:18:43.553Z,10.22
2023-04-29T21:23:46.938Z,10.23
2023-04-29T21:28:48.990Z,10.24
2023-04-29T21:33:51.212Z,10.13
2023-04-29T21:38:54.759Z,10.19
2023-04-29T21:43:58.507Z,10.27
2023-04-29T21:49:01.007Z,10.29
2023-04-29T21:54:08.529Z,9.98
2023-04-29T21:59:10.556Z,9.89
2023-04-29T22:04:12.520Z,9.94
2023-04-29T22:09:16.228Z,9.84
2023-04-29T22:14:18.336Z,9.86
2023-04-29T22:19:20.357Z,9.88
2023-04-29T22:24:23.682Z,9.84
2023-04-29T22:29:25.761Z,9.73
2023-04-29T22:34:27.701Z,9.77
2023-04-29T22:39:30.976Z,9.76
2023-04-29T22:44:32.978Z,9.81
2023-04-29T22:49:34.921Z,9.84
2023-04-29T22:54:38.276Z,9.82
2023-04-29T22:59:40.695Z,9.82
2023-04-29T23:04:43.788Z,9.73
2023-04-29T23:09:47.208Z,9.68
2023-04-29T23:14:50.902Z,9.54
2023-04-29T23:19:53.129Z,9.40
2023-04-29T23:24:56.578Z,9.29
2023-04-29T23:29:58.538Z,9.20
2023-04-29T23:35:00.498Z,9.14
2023-04-29T23:40:05.902Z,9.14
2023-04-29T23:45:08.761Z,9.11
2023-04-29T23:50:10.911Z,9.12
2023-04-29T23:55:14.206Z,9.12
